createdAt,value
2018-09-14T00:00:37.165Z,12.67
2018-09-14T00:03:06.052Z,16.70
2018-09-14T00:05:33.728Z,9.27
2018-09-14T00:08:01.797Z,8.37
2018-09-14T00:10:29.385Z,11.97
2018-09-14T00:12:56.962Z,10.53
2018-09-14T00:15:24.652Z,13.40
2018-09-14T00:17:52.268Z,11.70
2018-09-14T00:20:19.937Z,12.10
2018-09-14T00:22:47.530Z,13.73
2018-09-14T00:25:15.096Z,16.97
2018-09-14T00:27:42.689Z,9.40
2018-09-14T00:30:10.280Z,8.37
2018-09-14T00:32:37.839Z,11.27
2018-09-14T00:35:05.765Z,13.00
2018-09-14T00:37:33.327Z,10.80
2018-09-14T00:40:00.909Z,12.17
2018-09-14T00:42:28.516Z,12.60
2018-09-14T00:44:56.110Z,10.37
2018-09-14T00:47:23.670Z,11.93
2018-09-14T00:49:51.257Z,16.10
2018-09-14T00:52:18.894Z,10.47
2018-09-14T00:54:46.488Z,9.90
2018-09-14T00:57:14.089Z,9.97
2018-09-14T00:59:41.744Z,10.23
2018-09-14T01:02:09.284Z,10.83
2018-09-14T01:04:36.853Z,13.37
2018-09-14T01:07:04.549Z,11.83
2018-09-14T01:09:32.124Z,8.10
2018-09-14T01:11:59.744Z,14.63
2018-09-14T01:14:28.029Z,13.87
2018-09-14T01:16:56.421Z,11.43
2018-09-14T01:19:24.275Z,12.07
2018-09-14T01:21:51.938Z,7.87
2018-09-14T01:24:19.566Z,14.00
2018-09-14T01:26:47.149Z,8.37
2018-09-14T01:29:14.957Z,13.47
2018-09-14T01:31:44.581Z,10.10
2018-09-14T01:34:12.161Z,9.17
2018-09-14T01:36:39.723Z,11.17
2018-09-14T01:39:10.074Z,10.43
2018-09-14T01:41:38.078Z,12.03
2018-09-14T01:44:06.222Z,9.30
2018-09-14T01:46:33.798Z,11.63
2018-09-14T01:49:01.353Z,9.17
2018-09-14T01:51:28.925Z,13.90
2018-09-14T01:53:56.500Z,13.10
2018-09-14T01:56:24.112Z,14.87
2018-09-14T01:58:51.723Z,13.27
2018-09-14T02:01:19.514Z,15.00
2018-09-14T02:03:47.178Z,12.63
2018-09-14T02:06:14.889Z,16.20
2018-09-14T02:08:42.438Z,16.90
2018-09-14T02:11:10.033Z,19.17
2018-09-14T02:13:37.676Z,17.87
2018-09-14T02:16:05.342Z,13.50
2018-09-14T02:18:33.053Z,16.87
2018-09-14T02:21:00.604Z,14.57
2018-09-14T02:23:28.193Z,16.03
2018-09-14T02:25:55.850Z,12.93
2018-09-14T02:28:23.407Z,19.13
2018-09-14T02:30:51.059Z,17.97
2018-09-14T02:33:18.634Z,15.97
2018-09-14T02:35:46.252Z,14.53
2018-09-14T02:38:13.929Z,13.23
2018-09-14T02:40:41.525Z,14.50
2018-09-14T02:43:09.085Z,15.30
2018-09-14T02:45:36.692Z,11.67
2018-09-14T02:48:04.417Z,16.33
2018-09-14T02:50:32.237Z,15.13
2018-09-14T02:52:59.845Z,12.20
2018-09-14T02:55:27.486Z,20.17
2018-09-14T02:57:55.283Z,19.23
2018-09-14T03:00:22.860Z,24.67
2018-09-14T03:02:50.568Z,19.23
2018-09-14T03:05:18.104Z,19.17
2018-09-14T03:07:45.741Z,20.27
2018-09-14T03:10:13.421Z,16.63
2018-09-14T03:12:41.102Z,20.27
2018-09-14T03:15:08.768Z,19.03
2018-09-14T03:17:36.376Z,19.50
2018-09-14T03:20:03.992Z,17.93
2018-09-14T03:22:31.581Z,26.77
2018-09-14T03:24:59.157Z,14.27
2018-09-14T03:27:26.702Z,19.50
2018-09-14T03:29:54.622Z,16.33
2018-09-14T03:32:22.372Z,17.27
2018-09-14T03:34:49.827Z,22.13
2018-09-14T03:37:17.384Z,21.00
2018-09-14T03:39:44.977Z,17.20
2018-09-14T03:42:12.633Z,17.00
2018-09-14T03:44:40.246Z,16.30
2018-09-14T03:47:07.830Z,17.07
2018-09-14T03:49:35.410Z,15.63
2018-09-14T03:52:03.039Z,21.77
2018-09-14T03:54:30.951Z,26.40
2018-09-14T03:57:02.366Z,19.50
2018-09-14T03:59:30.220Z,21.80
2018-09-14T04:01:57.849Z,20.57
2018-09-14T04:04:25.475Z,17.53
2018-09-14T04:06:53.059Z,25.90
2018-09-14T04:09:20.631Z,18.13
2018-09-14T04:11:48.209Z,16.23
2018-09-14T04:14:15.789Z,21.50
2018-09-14T04:16:43.425Z,18.00
2018-09-14T04:19:11.008Z,20.03
2018-09-14T04:21:38.577Z,19.43
2018-09-14T04:24:06.262Z,17.53
2018-09-14T04:26:33.817Z,21.63
2018-09-14T04:29:01.418Z,16.53
2018-09-14T04:31:29.081Z,20.73
2018-09-14T04:33:56.670Z,25.30
2018-09-14T04:36:24.229Z,22.77
2018-09-14T04:38:51.833Z,24.97
2018-09-14T04:41:19.736Z,24.97
2018-09-14T04:43:47.339Z,23.13
2018-09-14T04:46:15.006Z,19.13
2018-09-14T04:48:42.545Z,20.47
2018-09-14T04:51:12.491Z,20.23
2018-09-14T04:53:40.045Z,25.00
2018-09-14T04:56:08.212Z,25.63
2018-09-14T04:58:36.051Z,29.03
2018-09-14T05:01:04.155Z,26.80
2018-09-14T05:03:31.718Z,19.60
2018-09-14T05:05:59.329Z,19.33
2018-09-14T05:08:26.933Z,20.70
2018-09-14T05:10:54.785Z,17.63
2018-09-14T05:13:22.340Z,23.07
2018-09-14T05:15:49.982Z,19.17
2018-09-14T05:18:17.661Z,24.80
2018-09-14T05:20:45.377Z,26.37
2018-09-14T05:23:12.990Z,26.27
2018-09-14T05:25:40.616Z,23.33
2018-09-14T05:28:08.601Z,19.80
2018-09-14T05:30:36.167Z,28.43
2018-09-14T05:33:03.770Z,25.20
2018-09-14T05:35:31.394Z,25.90
2018-09-14T05:37:58.998Z,25.50
2018-09-14T05:40:26.608Z,25.13
2018-09-14T05:42:54.314Z,20.63
2018-09-14T05:45:21.887Z,19.33
2018-09-14T05:47:49.445Z,22.70
2018-09-14T05:50:17.003Z,21.63
2018-09-14T05:52:44.585Z,21.23
2018-09-14T05:55:12.246Z,22.77
2018-09-14T05:57:39.863Z,19.63
2018-09-14T06:00:07.533Z,19.50
2018-09-14T06:02:35.195Z,24.83
2018-09-14T06:05:02.868Z,18.90
2018-09-14T06:07:30.434Z,22.13
2018-09-14T06:09:57.972Z,22.50
2018-09-14T06:12:25.562Z,19.93
2018-09-14T06:14:53.188Z,21.47
2018-09-14T06:17:20.775Z,21.77
2018-09-14T06:19:48.343Z,19.63
2018-09-14T06:22:15.939Z,24.50
2018-09-14T06:24:43.518Z,21.90
2018-09-14T06:27:11.134Z,27.50
2018-09-14T06:29:38.689Z,28.27
2018-09-14T06:32:06.265Z,30.97
2018-09-14T06:34:33.861Z,26.00
2018-09-14T06:37:01.443Z,24.33
2018-09-14T06:39:28.997Z,22.67
2018-09-14T06:41:56.568Z,20.63
2018-09-14T06:44:24.169Z,23.67
2018-09-14T06:46:51.848Z,28.60
2018-09-14T06:49:19.519Z,24.13
2018-09-14T06:51:47.081Z,26.23
2018-09-14T06:54:14.862Z,31.03
2018-09-14T06:56:42.483Z,26.57
2018-09-14T06:59:10.081Z,25.07
2018-09-14T07:01:37.669Z,30.87
2018-09-14T07:04:05.400Z,23.77
2018-09-14T07:06:33.067Z,27.03
2018-09-14T07:09:00.613Z,32.33
2018-09-14T07:11:28.256Z,24.30
2018-09-14T07:13:55.850Z,22.83
2018-09-14T07:16:23.460Z,24.37
2018-09-14T07:18:51.003Z,28.23
2018-09-14T07:21:18.627Z,28.30
2018-09-14T07:23:46.219Z,24.53
2018-09-14T07:26:13.861Z,24.73
2018-09-14T07:28:41.544Z,22.60
2018-09-14T07:31:09.144Z,21.93
2018-09-14T07:33:36.717Z,18.87
2018-09-14T07:36:04.317Z,20.20
2018-09-14T07:38:31.974Z,18.50
2018-09-14T07:40:59.621Z,18.97
2018-09-14T07:43:27.478Z,18.53
2018-09-14T07:45:55.030Z,19.53
2018-09-14T07:48:22.772Z,21.77
2018-09-14T07:50:50.977Z,18.97
2018-09-14T07:53:18.630Z,19.87
2018-09-14T07:55:46.228Z,19.70
2018-09-14T07:58:13.864Z,20.08
2018-09-14T08:00:41.465Z,22.80
2018-09-14T08:03:09.062Z,20.70
2018-09-14T08:05:36.637Z,22.37
2018-09-14T08:08:04.294Z,21.20
2018-09-14T08:10:31.873Z,21.62
2018-09-14T08:12:59.485Z,25.68
2018-09-14T08:15:27.078Z,24.70
2018-09-14T08:17:54.664Z,23.98
2018-09-14T08:20:22.261Z,23.87
2018-09-14T08:22:49.827Z,23.47
2018-09-14T08:25:17.427Z,21.77
2018-09-14T08:27:45.065Z,23.38
2018-09-14T08:30:12.672Z,23.98
2018-09-14T08:32:40.273Z,24.00
2018-09-14T08:35:07.967Z,24.05
2018-09-14T08:37:35.578Z,20.40
2018-09-14T08:40:03.295Z,20.55
2018-09-14T08:42:31.005Z,20.27
2018-09-14T08:44:58.646Z,21.85
2018-09-14T08:47:26.283Z,23.40
2018-09-14T08:49:53.913Z,19.70
2018-09-14T08:52:21.526Z,20.97
2018-09-14T08:54:49.120Z,17.80
2018-09-14T08:57:16.745Z,19.67
2018-09-14T08:59:44.362Z,20.10
2018-09-14T09:02:11.949Z,18.82
2018-09-14T09:04:39.524Z,23.80
2018-09-14T09:07:07.226Z,21.05
2018-09-14T09:09:35.659Z,19.80
2018-09-14T09:12:03.267Z,22.45
2018-09-14T09:14:30.866Z,21.20
2018-09-14T09:16:58.462Z,21.40
2018-09-14T09:19:26.103Z,22.80
2018-09-14T09:21:53.705Z,22.07
2018-09-14T09:24:21.284Z,22.90
2018-09-14T09:26:48.884Z,27.13
2018-09-14T09:29:16.622Z,26.90
2018-09-14T09:31:44.290Z,23.60
2018-09-14T09:34:11.878Z,28.90
2018-09-14T09:36:39.491Z,22.80
2018-09-14T09:39:10.006Z,21.90
2018-09-14T09:41:37.724Z,21.02
2018-09-14T09:44:05.375Z,22.07
2018-09-14T09:46:32.948Z,19.77
2018-09-14T09:49:00.581Z,18.35
2018-09-14T09:51:28.219Z,19.12
2018-09-14T09:53:55.784Z,16.02
2018-09-14T09:56:23.383Z,16.05
2018-09-14T09:58:51.057Z,17.60
2018-09-14T10:01:24.331Z,18.02
2018-09-14T10:03:57.568Z,17.07
2018-09-14T10:06:26.355Z,16.48
2018-09-14T10:08:54.827Z,20.95
2018-09-14T10:11:22.648Z,17.75
2018-09-14T10:13:50.321Z,18.10
2018-09-14T10:16:18.006Z,17.02
2018-09-14T10:18:45.666Z,15.90
2018-09-14T10:21:19.728Z,19.27
2018-09-14T10:23:47.371Z,15.63
2018-09-14T10:26:17.025Z,16.85
2018-09-14T10:28:57.392Z,16.23
2018-09-14T10:31:28.232Z,14.80
2018-09-14T10:33:56.830Z,13.30
2018-09-14T10:36:29.457Z,16.20
2018-09-14T10:39:06.716Z,14.50
2018-09-14T10:41:37.574Z,13.60
2018-09-14T10:44:09.117Z,14.98
2018-09-14T10:46:47.292Z,14.98
2018-09-14T10:49:20.153Z,12.07
2018-09-14T10:51:50.238Z,14.30
2018-09-14T10:54:34.637Z,10.98
2018-09-14T10:57:07.780Z,15.08
2018-09-14T10:59:42.853Z,9.38
2018-09-14T11:02:15.137Z,8.80
2018-09-14T11:04:47.073Z,10.75
2018-09-14T11:07:20.452Z,9.05
2018-09-14T11:09:50.015Z,10.20
2018-09-14T11:12:28.471Z,15.10
2018-09-14T11:17:39.130Z,11.12
2018-09-14T11:20:14.189Z,9.68
2018-09-14T11:22:53.998Z,9.68
2018-09-14T11:25:37.233Z,12.43
2018-09-14T11:28:05.045Z,13.00
2018-09-14T11:30:32.749Z,13.00
2018-09-14T11:33:07.385Z,13.90
2018-09-14T11:35:35.454Z,21.63
2018-09-14T11:38:15.211Z,19.57
2018-09-14T11:40:42.752Z,18.33
2018-09-14T11:43:10.359Z,15.80
2018-09-14T11:45:43.240Z,14.13
2018-09-14T11:48:16.501Z,14.13
2018-09-14T11:50:53.850Z,13.97
2018-09-14T11:53:38.360Z,14.33
2018-09-14T11:56:11.926Z,13.17
2018-09-14T11:58:46.763Z,9.23
2018-09-14T12:01:14.452Z,9.40
2018-09-14T12:03:47.679Z,10.93
2018-09-14T12:06:19.503Z,10.30
2018-09-14T12:08:47.093Z,9.07
2018-09-14T12:11:28.381Z,8.93
2018-09-14T12:13:56.052Z,12.00
2018-09-14T12:16:36.193Z,9.00
2018-09-14T12:19:04.716Z,9.30
2018-09-14T12:21:32.324Z,8.10
2018-09-14T12:23:59.907Z,14.90
2018-09-14T12:26:27.530Z,8.27
2018-09-14T12:29:06.021Z,15.13
2018-09-14T12:34:14.905Z,10.63
2018-09-14T12:36:42.546Z,13.03
2018-09-14T12:41:51.284Z,9.90
2018-09-14T12:44:18.861Z,9.47
2018-09-14T12:46:46.507Z,9.77
2018-09-14T12:49:14.108Z,10.00
2018-09-14T12:51:41.805Z,9.00
2018-09-14T12:54:09.396Z,10.37
2018-09-14T12:56:36.992Z,9.70
2018-09-14T12:59:04.660Z,9.93
2018-09-14T13:01:32.230Z,10.70
2018-09-14T13:03:59.948Z,10.97
2018-09-14T13:06:27.537Z,10.83
2018-09-14T13:08:55.205Z,10.53
2018-09-14T13:11:22.874Z,12.67
2018-09-14T13:13:50.474Z,9.67
2018-09-14T13:16:18.061Z,13.43
2018-09-14T13:18:45.685Z,10.13
2018-09-14T13:21:13.285Z,10.63
2018-09-14T13:23:40.911Z,10.07
2018-09-14T13:26:08.557Z,11.13
2018-09-14T13:28:36.175Z,9.67
2018-09-14T13:31:03.781Z,8.47
2018-09-14T13:33:31.560Z,11.60
2018-09-14T13:35:59.185Z,8.73
2018-09-14T13:38:26.769Z,10.23
2018-09-14T13:40:54.357Z,9.87
2018-09-14T13:43:22.180Z,9.80
2018-09-14T13:45:49.864Z,10.10
2018-09-14T13:48:17.541Z,15.00
2018-09-14T13:50:48.193Z,9.27
2018-09-14T13:53:15.945Z,11.30
2018-09-14T13:55:43.557Z,10.00
2018-09-14T13:58:11.252Z,9.00
2018-09-14T14:00:38.910Z,10.00
2018-09-14T14:03:06.814Z,10.33
2018-09-14T14:05:34.492Z,10.87
2018-09-14T14:08:02.287Z,7.67
2018-09-14T14:10:29.935Z,7.80
2018-09-14T14:12:57.581Z,13.13
2018-09-14T14:15:25.171Z,9.23
2018-09-14T14:17:53.039Z,9.03
2018-09-14T14:20:20.555Z,7.37
2018-09-14T14:22:51.462Z,10.27
2018-09-14T14:25:19.133Z,8.33
2018-09-14T14:27:46.768Z,12.60
2018-09-14T14:30:21.785Z,6.87
2018-09-14T14:32:49.426Z,8.10
2018-09-14T14:35:17.089Z,8.87
2018-09-14T14:37:44.729Z,8.43
2018-09-14T14:40:12.374Z,8.73
2018-09-14T14:42:40.059Z,9.50
2018-09-14T14:45:07.706Z,6.60
2018-09-14T14:47:35.386Z,5.53
2018-09-14T14:50:03.058Z,11.77
2018-09-14T14:52:31.018Z,9.70
2018-09-14T14:54:58.609Z,8.33
2018-09-14T14:57:27.747Z,11.37
2018-09-14T14:59:55.491Z,10.67
2018-09-14T15:02:23.306Z,9.07
2018-09-14T15:04:51.059Z,6.20
2018-09-14T15:07:18.662Z,10.60
2018-09-14T15:09:46.282Z,9.03
2018-09-14T15:12:13.929Z,10.07
2018-09-14T15:14:41.594Z,7.93
2018-09-14T15:17:09.274Z,11.07
2018-09-14T15:19:44.701Z,11.93
2018-09-14T15:22:12.406Z,11.73
2018-09-14T15:24:40.033Z,12.07
2018-09-14T15:27:07.674Z,9.90
2018-09-14T15:29:35.310Z,10.53
2018-09-14T15:32:02.961Z,11.30
2018-09-14T15:34:30.583Z,8.10
2018-09-14T15:36:58.264Z,10.60
2018-09-14T15:39:25.891Z,10.90
2018-09-14T15:41:53.647Z,10.80
2018-09-14T15:44:21.214Z,7.00
2018-09-14T15:46:48.880Z,9.13
2018-09-14T15:49:17.387Z,6.60
2018-09-14T15:51:45.013Z,8.70
2018-09-14T15:54:12.660Z,7.30
2018-09-14T15:56:40.263Z,7.97
2018-09-14T15:59:07.959Z,8.43
2018-09-14T16:01:35.598Z,8.93
2018-09-14T16:04:03.328Z,10.90
2018-09-14T16:06:31.225Z,9.60
2018-09-14T16:08:59.278Z,9.70
2018-09-14T16:11:26.921Z,11.30
2018-09-14T16:13:54.864Z,9.73
2018-09-14T16:16:22.479Z,9.60
2018-09-14T16:18:50.230Z,6.50
2018-09-14T16:21:17.802Z,9.30
2018-09-14T16:23:45.541Z,7.50
2018-09-14T16:26:13.232Z,8.87
2018-09-14T16:28:40.851Z,6.50
2018-09-14T16:31:08.542Z,8.93
2018-09-14T16:33:36.131Z,6.97
2018-09-14T16:36:03.776Z,6.83
2018-09-14T16:38:31.513Z,7.07
2018-09-14T16:40:59.104Z,10.87
2018-09-14T16:43:26.784Z,7.63
2018-09-14T16:45:54.337Z,6.67
2018-09-14T16:48:33.661Z,6.43
2018-09-14T16:51:01.437Z,7.10
2018-09-14T16:53:29.040Z,7.10
2018-09-14T16:55:56.693Z,4.83
2018-09-14T16:58:24.730Z,5.30
2018-09-14T17:00:52.372Z,5.07
2018-09-14T17:03:20.105Z,7.33
2018-09-14T17:05:51.285Z,9.03
2018-09-14T17:08:18.932Z,7.47
2018-09-14T17:10:46.554Z,5.53
2018-09-14T17:13:14.177Z,5.37
2018-09-14T17:15:41.824Z,7.73
2018-09-14T17:18:09.448Z,4.30
2018-09-14T17:20:37.310Z,4.30
2018-09-14T17:23:04.943Z,4.50
2018-09-14T17:25:32.513Z,5.83
2018-09-14T17:28:00.125Z,5.00
2018-09-14T17:30:27.748Z,6.27
2018-09-14T17:32:57.233Z,6.00
2018-09-14T17:35:25.705Z,6.77
2018-09-14T17:37:53.280Z,9.83
2018-09-14T17:40:20.931Z,4.73
2018-09-14T17:42:49.906Z,5.87
2018-09-14T17:45:18.713Z,6.10
2018-09-14T17:47:48.272Z,5.93
2018-09-14T17:50:17.457Z,4.73
2018-09-14T17:52:45.323Z,6.60
2018-09-14T17:55:13.021Z,5.83
2018-09-14T17:57:51.853Z,5.33
2018-09-14T18:00:20.616Z,5.67
2018-09-14T18:02:48.272Z,9.37
2018-09-14T18:05:16.913Z,8.30
2018-09-14T18:07:45.609Z,6.43
2018-09-14T18:10:13.249Z,7.00
2018-09-14T18:12:40.923Z,6.53
2018-09-14T18:15:09.944Z,6.60
2018-09-14T18:17:37.704Z,8.57
2018-09-14T18:20:06.194Z,6.27
2018-09-14T18:22:37.010Z,5.80
2018-09-14T18:25:11.445Z,5.97
2018-09-14T18:27:42.319Z,6.67
2018-09-14T18:30:10.083Z,9.20
2018-09-14T18:32:37.818Z,6.23
2018-09-14T18:35:05.568Z,5.93
2018-09-14T18:37:33.230Z,4.87
2018-09-14T18:40:01.954Z,8.77
2018-09-14T18:42:29.654Z,7.63
2018-09-14T18:44:57.346Z,6.57
2018-09-14T18:47:25.073Z,9.63
2018-09-14T18:49:53.303Z,10.97
2018-09-14T18:52:20.985Z,7.20
2018-09-14T18:54:48.658Z,7.00
2018-09-14T18:57:16.473Z,6.77
2018-09-14T18:59:44.194Z,11.00
2018-09-14T19:02:11.865Z,7.43
2018-09-14T19:04:39.497Z,8.40
2018-09-14T19:07:07.284Z,9.03
2018-09-14T19:09:34.934Z,11.10
2018-09-14T19:12:02.567Z,8.73
2018-09-14T19:14:30.258Z,6.53
2018-09-14T19:16:57.986Z,8.00
2018-09-14T19:19:25.681Z,8.07
2018-09-14T19:21:53.361Z,10.57
2018-09-14T19:24:21.077Z,9.83
2018-09-14T19:26:53.483Z,10.13
2018-09-14T19:29:21.946Z,10.70
2018-09-14T19:31:49.697Z,11.20
2018-09-14T19:34:17.294Z,11.60
2018-09-14T19:36:58.317Z,10.50
2018-09-14T19:39:25.985Z,9.50
2018-09-14T19:41:53.650Z,9.20
2018-09-14T19:44:21.425Z,8.67
2018-09-14T19:46:49.049Z,10.53
2018-09-14T19:49:16.753Z,11.00
2018-09-14T19:51:44.552Z,9.27
2018-09-14T19:54:12.295Z,11.83
2018-09-14T19:56:39.977Z,8.43
2018-09-14T19:59:12.425Z,10.20
2018-09-14T20:01:40.238Z,13.63
2018-09-14T20:04:07.920Z,9.27
2018-09-14T20:06:35.698Z,10.20
2018-09-14T20:09:06.394Z,15.80
2018-09-14T20:11:34.405Z,11.67
2018-09-14T20:14:02.369Z,13.93
2018-09-14T20:16:30.274Z,11.73
2018-09-14T20:18:58.458Z,12.87
2018-09-14T20:21:26.428Z,12.40
2018-09-14T20:23:54.506Z,14.27
2018-09-14T20:26:22.423Z,11.73
2018-09-14T20:28:50.440Z,11.90
2018-09-14T20:31:18.483Z,9.67
2018-09-14T20:33:46.415Z,10.73
2018-09-14T20:36:14.403Z,12.47
2018-09-14T20:38:43.611Z,12.63
2018-09-14T20:41:12.415Z,15.53
2018-09-14T20:43:40.275Z,14.67
2018-09-14T20:46:08.270Z,10.40
2018-09-14T20:48:36.194Z,10.17
2018-09-14T20:51:04.146Z,9.53
2018-09-14T20:53:32.154Z,9.80
2018-09-14T20:56:00.211Z,12.30
2018-09-14T20:58:28.330Z,15.13
2018-09-14T21:00:56.309Z,15.10
2018-09-14T21:03:24.392Z,13.87
2018-09-14T21:05:54.698Z,14.70
2018-09-14T21:08:22.665Z,13.30
2018-09-14T21:10:50.655Z,15.23
2018-09-14T21:13:18.628Z,14.40
2018-09-14T21:15:46.607Z,11.87
2018-09-14T21:18:14.575Z,12.50
2018-09-14T21:20:42.792Z,15.83
2018-09-14T21:23:10.964Z,12.23
2018-09-14T21:25:38.873Z,23.00
2018-09-14T21:28:06.905Z,27.00
2018-09-14T21:30:34.857Z,22.03
2018-09-14T21:33:02.821Z,15.67
2018-09-14T21:35:30.824Z,14.17
2018-09-14T21:37:58.730Z,12.33
2018-09-14T21:40:26.708Z,12.53
2018-09-14T21:42:54.654Z,12.87
2018-09-14T21:45:22.626Z,9.80
2018-09-14T21:47:50.469Z,7.07
2018-09-14T21:50:18.399Z,8.83
2018-09-14T21:52:46.327Z,10.40
2018-09-14T21:55:14.342Z,7.77
2018-09-14T21:57:42.318Z,11.37
2018-09-14T22:00:16.526Z,10.60
2018-09-14T22:02:45.344Z,9.67
2018-09-14T22:05:13.438Z,11.33
2018-09-14T22:07:41.334Z,13.97
2018-09-14T22:10:09.277Z,7.70
2018-09-14T22:12:37.206Z,10.50
2018-09-14T22:15:05.090Z,11.03
2018-09-14T22:17:33.118Z,11.90
2018-09-14T22:20:01.043Z,8.77
2018-09-14T22:22:28.918Z,9.57
2018-09-14T22:24:57.020Z,12.37
2018-09-14T22:27:30.542Z,10.77
2018-09-14T22:29:58.448Z,14.97
2018-09-14T22:32:26.365Z,9.80
2018-09-14T22:34:54.277Z,12.77
2018-09-14T22:37:22.194Z,9.30
2018-09-14T22:39:50.153Z,11.30
2018-09-14T22:42:18.122Z,9.70
2018-09-14T22:44:46.081Z,8.50
2018-09-14T22:47:13.957Z,8.60
2018-09-14T22:49:41.992Z,9.27
2018-09-14T22:52:09.875Z,8.77
2018-09-14T22:54:37.898Z,8.93
2018-09-14T22:57:05.838Z,7.03
2018-09-14T22:59:33.815Z,10.17
2018-09-14T23:02:01.823Z,11.67
2018-09-14T23:04:29.755Z,9.87
2018-09-14T23:06:57.650Z,7.30
2018-09-14T23:09:25.840Z,10.77
2018-09-14T23:11:53.726Z,7.90
2018-09-14T23:14:21.582Z,15.50
2018-09-14T23:16:49.641Z,11.63
2018-09-14T23:19:17.606Z,9.47
2018-09-14T23:21:45.562Z,7.53
2018-09-14T23:24:13.412Z,12.07
2018-09-14T23:26:41.418Z,11.93
2018-09-14T23:29:09.329Z,11.67
2018-09-14T23:31:37.243Z,15.37
2018-09-14T23:34:05.256Z,8.33
2018-09-14T23:36:33.314Z,12.83
2018-09-14T23:39:01.214Z,10.17
2018-09-14T23:41:29.142Z,10.23
2018-09-14T23:43:57.216Z,9.37
2018-09-14T23:46:25.078Z,8.63
2018-09-14T23:48:53.052Z,6.47
2018-09-14T23:51:20.898Z,10.53
2018-09-14T23:53:48.768Z,7.37
2018-09-14T23:56:16.686Z,11.90
2018-09-14T23:58:44.634Z,8.53
